Sti Opera — V7CJ3 — position and weather

sailwx.info

Track history (hours):
 
Tides and Currents Weather Stations Pressure Air Temp Water Temp Dewpoint Dewpoint Depression Visibility Wind Speed Wind Dir Waves Ship Positions

Sti Opera

Last reported at 2017-Nov-10 15:31 UTC. Time now 2017-Nov-20 06:23 UTC.
Position N 23°47' W 017°23'.
Warning: this ship's position is 9 days out of date.

Length 183 m; draft 11.7 m.

Type: Tanker. MMSI: 538005269.

Date/timePositionNaut miles runAvg speedWind from/ knotsBaromVisibWave heightAir tempDewpointWater temp
2017-Nov-10 15:31N 23°47' W 017°23'013.4
2017-Nov-10 15:30N 23°47' W 017°23'5014.4
2017-Nov-10 12:03N 24°32' W 016°59'314.4
2017-Nov-10 11:49N 24°35' W 016°57'414.2
2017-Nov-10 11:30N 24°39' W 016°55'714.1
2017-Nov-10 11:00N 24°45' W 016°51'19314.5
2017-Nov-09 21:38N 27°37' W 015°14'214.1
2017-Nov-09 21:30N 27°39' W 015°13'814.6
2017-Nov-09 20:59N 27°46' W 015°09'714.6
2017-Nov-09 20:30N 27°52' W 015°06'714.1
2017-Nov-09 20:00N 27°59' W 015°04'714.2
2017-Nov-09 19:30N 28°06' W 015°01'714.1
2017-Nov-09 19:00N 28°12' W 014°58'714.5
2017-Nov-09 18:30N 28°19' W 014°56'714.5
2017-Nov-09 18:00N 28°26' W 014°53'714.5
2017-Nov-09 17:30N 28°33' W 014°51'914.5
2017-Nov-09 16:55N 28°41' W 014°49'614.1
2017-Nov-09 16:28N 28°48' W 014°47'714.0
2017-Nov-09 15:58N 28°55' W 014°46'  
2017-Nov-05 11:30N 49°48' W 003°27'1014.5
2017-Nov-05 10:47N 49°53' W 003°13'413.8
2017-Nov-05 10:30N 49°55' W 003°07'613.2
2017-Nov-05 10:00N 49°58' W 002°59'612.2
2017-Nov-05 09:30N 50°01' W 002°50'611.4
2017-Nov-05 09:00N 50°02' W 002°41'610.5
2017-Nov-05 08:27N 50°04' W 002°33'20 9.9
2017-Nov-05 06:25N 50°09' W 002°02'410.9
2017-Nov-05 06:00N 50°10' W 001°56'611.8
2017-Nov-05 05:30N 50°12' W 001°47'612.9
2017-Nov-05 05:00N 50°13' W 001°37'714.1
2017-Nov-05 04:31N 50°15' W 001°26'815.2
2017-Nov-05 04:00N 50°18' W 001°15'3715.9
2017-Nov-05 01:43N 50°27' W 000°19'314.8
2017-Nov-05 01:29N 50°28' W 000°15'714.5
2017-Nov-05 01:01N 50°29' W 000°04'714.1
2017-Nov-05 00:30N 50°31' E 000°07'713.5
2017-Nov-05 00:00N 50°32' E 000°17'712.9
2017-Nov-04 23:30N 50°34' E 000°27'612.6
2017-Nov-04 23:00N 50°37' E 000°36'612.3
2017-Nov-04 22:30N 50°40' E 000°44'612.2
2017-Nov-04 22:00N 50°44' E 000°52'612.2
2017-Nov-04 21:30N 50°47' E 000°60'612.8
2017-Nov-04 21:00N 50°51' E 001°08'914.1
2017-Nov-04 20:24N 50°56' E 001°19'615.7
2017-Nov-04 20:00N 51°00' E 001°26'816.7
2017-Nov-04 19:30N 51°06' E 001°36'816.5
2017-Nov-04 19:00N 51°12' E 001°45'815.8
2017-Nov-04 18:30N 51°19' E 001°52'714.4
2017-Nov-04 18:01N 51°24' E 001°58'612.8
2017-Nov-04 17:30N 51°23' E 002°08'713.4
2017-Nov-04 17:00N 51°20' E 002°18'713.3
2017-Nov-04 16:30N 51°23' E 002°28'612.2
2017-Nov-04 15:59N 51°23' E 002°38'5 9.9
2017-Nov-04 15:30N 51°24' E 002°46'510.6
2017-Nov-04 15:00N 51°25' E 002°54'612.3
2017-Nov-04 14:30N 51°25' E 003°04'611.8
2017-Nov-04 14:00N 51°25' E 003°14'612.0
2017-Nov-04 13:30N 51°25' E 003°23'611.6
2017-Nov-04 13:00N 51°26' E 003°32'4 8.4
2017-Nov-04 12:30N 51°26' E 003°39'5 9.6
2017-Nov-04 12:01N 51°23' E 003°44'510.4
2017-Nov-04 11:31N 51°21' E 003°51'510.1
2017-Nov-04 11:00N 51°24' E 003°57'3 6.1
2017-Nov-04 10:30N 51°25' E 004°02'4 8.8
2017-Nov-04 10:00N 51°22' E 004°08'3 6.4
2017-Nov-04 09:30N 51°22' E 004°13'3 5.1
2017-Nov-04 09:00N 51°21' E 004°17'0 0.0
2017-Nov-04 08:30N 51°21' E 004°17'0 0.0
2017-Nov-04 08:00N 51°21' E 004°17'0 0.1
2017-Nov-04 07:30N 51°21' E 004°17'1 2.8
2017-Nov-04 07:00N 51°20' E 004°18'3 5.6
2017-Nov-04 06:31N 51°17' E 004°20'1 1.1
2017-Nov-04 05:53N 51°16' E 004°21'0 0.0
2017-Nov-04 05:26N 51°16' E 004°21'0 0.0
2017-Nov-04 04:56N 51°16' E 004°21'0 0.0
2017-Nov-04 04:29N 51°16' E 004°21'0 0.0
2017-Nov-04 03:59N 51°16' E 004°21'0 0.0
2017-Nov-04 03:26N 51°16' E 004°21'0 0.0
2017-Nov-04 02:59N 51°16' E 004°21'0 0.0
2017-Nov-04 02:29N 51°16' E 004°21'0 0.0
2017-Nov-04 01:59N 51°16' E 004°21'0 0.0
2017-Nov-04 01:26N 51°16' E 004°21'0 0.0
2017-Nov-04 00:59N 51°16' E 004°21'0 0.0
2017-Nov-04 00:11N 51°16' E 004°21'0 0.0
2017-Nov-03 23:59N 51°16' E 004°21'0 0.0
2017-Nov-03 23:29N 51°16' E 004°21'0 0.0
2017-Nov-03 22:59N 51°16' E 004°21'0 0.0
2017-Nov-03 22:29N 51°16' E 004°21'0 0.0
2017-Nov-03 21:56N 51°16' E 004°21'0 0.0
2017-Nov-03 21:29N 51°16' E 004°21'0 0.0
2017-Nov-03 20:50N 51°16' E 004°21'0 0.0
2017-Nov-03 20:29N 51°16' E 004°21'0 0.0
2017-Nov-03 19:59N 51°16' E 004°21'0 0.0
2017-Nov-03 19:29N 51°16' E 004°21'0 0.0
2017-Nov-03 18:50N 51°16' E 004°21'0 0.0
2017-Nov-03 18:26N 51°16' E 004°21'0 0.0
2017-Nov-03 17:56N 51°16' E 004°21'0 0.0
2017-Nov-03 17:29N 51°16' E 004°21'0 0.0
2017-Nov-03 16:59N 51°16' E 004°21'0 0.0
2017-Nov-03 16:26N 51°16' E 004°21'0 0.0
2017-Nov-03 15:59N 51°16' E 004°21'0 0.0
2017-Nov-03 15:26N 51°16' E 004°21'0 0.0
2017-Nov-03 14:56N 51°16' E 004°21'0 0.0
2017-Nov-03 14:29N 51°16' E 004°21'0 0.0
2017-Nov-03 13:59N 51°16' E 004°21'0 0.0
2017-Nov-03 13:26N 51°16' E 004°21'0 0.0
2017-Nov-03 12:53N 51°16' E 004°21'0 0.0
2017-Nov-03 12:26N 51°16' E 004°21'0 0.0
2017-Nov-03 11:56N 51°16' E 004°21'0 0.0
2017-Nov-03 11:29N 51°16' E 004°21'0 0.0
2017-Nov-03 10:59N 51°16' E 004°21'0 0.0
2017-Nov-03 10:26N 51°16' E 004°21'0 0.0
2017-Nov-03 09:59N 51°16' E 004°21'0 0.0
2017-Nov-03 09:29N 51°16' E 004°21'0 0.0
2017-Nov-03 08:59N 51°16' E 004°21'0 0.0
2017-Nov-03 08:29N 51°16' E 004°21'0 0.0
2017-Nov-03 07:59N 51°16' E 004°21'0 0.0
2017-Nov-03 07:29N 51°16' E 004°21'0 0.0
2017-Nov-03 06:59N 51°16' E 004°21'0 0.0
2017-Nov-03 06:29N 51°16' E 004°21'0 0.0
2017-Nov-03 05:59N 51°16' E 004°21'0 0.0
2017-Nov-03 05:29N 51°16' E 004°21'0 0.0
2017-Nov-03 04:59N 51°16' E 004°21'0 0.0
2017-Nov-03 04:29N 51°16' E 004°21'0 0.0
2017-Nov-03 03:59N 51°16' E 004°21'0 0.0
2017-Nov-03 03:29N 51°16' E 004°21'0 0.0
2017-Nov-03 02:59N 51°16' E 004°21'0 0.0
2017-Nov-03 02:29N 51°16' E 004°21'0 0.0
2017-Nov-03 01:56N 51°16' E 004°21'0 0.0
2017-Nov-03 01:29N 51°16' E 004°21'0 0.0
2017-Nov-03 00:56N 51°16' E 004°21'0 0.0
2017-Nov-03 00:29N 51°16' E 004°21'0 0.0
2017-Nov-02 23:56N 51°16' E 004°21'0 0.0
2017-Nov-02 23:29N 51°16' E 004°21'0 0.0
2017-Nov-02 22:59N 51°16' E 004°21'0 0.0
2017-Nov-02 22:29N 51°16' E 004°21'0 0.0
2017-Nov-02 21:59N 51°16' E 004°21'0 0.0
2017-Nov-02 21:29N 51°16' E 004°21'0 0.0
2017-Nov-02 20:56N 51°16' E 004°21'0 0.0
2017-Nov-02 20:28N 51°16' E 004°21'0 0.0
2017-Nov-02 19:59N 51°16' E 004°21'0 0.0
2017-Nov-02 19:29N 51°16' E 004°21'0 0.0
2017-Nov-02 18:59N 51°16' E 004°21'0 0.0
2017-Nov-02 18:29N 51°16' E 004°21'0 0.0
2017-Nov-02 17:59N 51°16' E 004°21'0 0.0
2017-Nov-02 17:29N 51°16' E 004°21'0 0.0
2017-Nov-02 16:58N 51°16' E 004°21'0 0.0
2017-Nov-02 16:29N 51°16' E 004°21'0 0.0
2017-Nov-02 15:58N 51°16' E 004°21'0 0.0
2017-Nov-02 15:28N 51°16' E 004°21'0 0.0
2017-Nov-02 14:59N 51°16' E 004°21'0 0.0
2017-Nov-02 14:28N 51°16' E 004°21'0 0.0
2017-Nov-02 13:58N 51°16' E 004°21'0 0.0
2017-Nov-02 13:28N 51°16' E 004°21'0 0.0
2017-Nov-02 12:59N 51°16' E 004°21'0 0.0
2017-Nov-02 12:29N 51°16' E 004°21'0 0.0
2017-Nov-02 11:58N 51°16' E 004°21'0 0.0
2017-Nov-02 11:28N 51°16' E 004°21'0 0.0
2017-Nov-02 10:59N 51°16' E 004°21'0 0.0
2017-Nov-02 10:28N 51°16' E 004°21'0 0.0
2017-Nov-02 09:59N 51°16' E 004°21'0 0.0
2017-Nov-02 09:28N 51°16' E 004°21'0 0.0
2017-Nov-02 08:58N 51°16' E 004°21'0 0.0
2017-Nov-02 08:22N 51°16' E 004°21'0 0.0
2017-Nov-02 07:59N 51°16' E 004°21'0 0.0
2017-Nov-02 07:28N 51°16' E 004°21'0 0.0
2017-Nov-02 06:55N 51°16' E 004°21'0 0.0
2017-Nov-02 06:28N 51°16' E 004°21'0 0.0
2017-Nov-02 05:56N 51°16' E 004°21'0 0.0
2017-Nov-02 05:29N 51°16' E 004°21'0 0.0
2017-Nov-02 04:58N 51°16' E 004°21'0 0.0
2017-Nov-02 04:22N 51°16' E 004°21'0 0.0
2017-Nov-02 03:58N 51°16' E 004°21'0 0.0
2017-Nov-02 03:28N 51°16' E 004°21'0 0.0
2017-Nov-02 02:58N 51°16' E 004°21'0 0.0
2017-Nov-02 02:25N 51°16' E 004°21'0 0.0
2017-Nov-02 01:58N 51°16' E 004°21'0 0.0
2017-Nov-02 01:28N 51°16' E 004°21'0 0.0
2017-Nov-02 00:58N 51°16' E 004°21'0 0.0
2017-Nov-02 00:28N 51°16' E 004°21'0 0.0
2017-Nov-01 23:58N 51°16' E 004°21'0 0.0
2017-Nov-01 23:28N 51°16' E 004°21'0 0.0
2017-Nov-01 22:58N 51°16' E 004°21'0 0.0
2017-Nov-01 22:28N 51°16' E 004°21'0 0.0
2017-Nov-01 21:58N 51°16' E 004°21'0 0.0
2017-Nov-01 21:28N 51°16' E 004°21'0 0.0
2017-Nov-01 20:58N 51°16' E 004°21'0 0.0
2017-Nov-01 20:28N 51°16' E 004°21'0 0.0
2017-Nov-01 19:58N 51°16' E 004°21'0 0.0
2017-Nov-01 19:25N 51°16' E 004°21'0 0.0
2017-Nov-01 18:58N 51°16' E 004°21'0 0.0
2017-Nov-01 18:28N 51°16' E 004°21'0 0.0
2017-Nov-01 01:58N 51°16' E 004°21'0 0.0
2017-Nov-01 01:28N 51°16' E 004°21'0 0.0
2017-Nov-01 00:58N 51°16' E 004°21'0 0.0
2017-Nov-01 00:28N 51°16' E 004°21'0 0.0
2017-Oct-31 23:58N 51°16' E 004°21'0 0.0
2017-Oct-31 23:28N 51°16' E 004°21'0 0.0
2017-Oct-31 22:58N 51°16' E 004°21'0 0.0
2017-Oct-31 22:25N 51°16' E 004°21'0 0.2
2017-Oct-31 22:00N 51°16' E 004°21'2 4.4
2017-Oct-31 21:30N 51°19' E 004°19'3 5.2
2017-Oct-31 21:00N 51°21' E 004°17'0 0.3
2017-Oct-31 20:30N 51°21' E 004°17'0 0.0
2017-Oct-31 20:00N 51°21' E 004°17'0 0.2
2017-Oct-31 19:31N 51°21' E 004°17'2 4.0
2017-Oct-31 19:00N 51°21' E 004°14'4 7.5
2017-Oct-31 18:31N 51°22' E 004°08'611.1
2017-Oct-31 18:00N 51°26' E 004°01'611.1
2017-Oct-31 17:30N 51°22' E 003°55'611.7
2017-Oct-31 17:01N 51°22' E 003°45'611.1
2017-Oct-31 16:30N 51°26' E 003°40'4 7.8
2017-Oct-31 16:01N 51°25' E 003°34'  
Track history (hours):
 
Tides and Currents Weather Stations Pressure Air Temp Water Temp Dewpoint Dewpoint Depression Visibility Wind Speed Wind Dir Waves Ship Positions

Sti Opera

Last reported at 2017-Nov-10 15:31 UTC. Time now 2017-Nov-20 06:23 UTC.
Position N 23°47' W 017°23'.
Warning: this ship's position is 9 days out of date.

Length 183 m; draft 11.7 m.

Type: Tanker. MMSI: 538005269.

Date/timePositionNaut miles runAvg speedWind from/ knotsBaromVisibWave heightAir tempDewpointWater temp
2017-Nov-10 15:31N 23°47' W 017°23'013.4
2017-Nov-10 15:30N 23°47' W 017°23'5014.4
2017-Nov-10 12:03N 24°32' W 016°59'314.4
2017-Nov-10 11:49N 24°35' W 016°57'414.2
2017-Nov-10 11:30N 24°39' W 016°55'714.1
2017-Nov-10 11:00N 24°45' W 016°51'19314.5
2017-Nov-09 21:38N 27°37' W 015°14'214.1
2017-Nov-09 21:30N 27°39' W 015°13'814.6
2017-Nov-09 20:59N 27°46' W 015°09'714.6
2017-Nov-09 20:30N 27°52' W 015°06'714.1
2017-Nov-09 20:00N 27°59' W 015°04'714.2
2017-Nov-09 19:30N 28°06' W 015°01'714.1
2017-Nov-09 19:00N 28°12' W 014°58'714.5
2017-Nov-09 18:30N 28°19' W 014°56'714.5
2017-Nov-09 18:00N 28°26' W 014°53'714.5
2017-Nov-09 17:30N 28°33' W 014°51'914.5
2017-Nov-09 16:55N 28°41' W 014°49'614.1
2017-Nov-09 16:28N 28°48' W 014°47'714.0
2017-Nov-09 15:58N 28°55' W 014°46'  
2017-Nov-05 11:30N 49°48' W 003°27'1014.5
2017-Nov-05 10:47N 49°53' W 003°13'413.8
2017-Nov-05 10:30N 49°55' W 003°07'613.2
2017-Nov-05 10:00N 49°58' W 002°59'612.2
2017-Nov-05 09:30N 50°01' W 002°50'611.4
2017-Nov-05 09:00N 50°02' W 002°41'610.5
2017-Nov-05 08:27N 50°04' W 002°33'20 9.9
2017-Nov-05 06:25N 50°09' W 002°02'410.9
2017-Nov-05 06:00N 50°10' W 001°56'611.8
2017-Nov-05 05:30N 50°12' W 001°47'612.9
2017-Nov-05 05:00N 50°13' W 001°37'714.1
2017-Nov-05 04:31N 50°15' W 001°26'815.2
2017-Nov-05 04:00N 50°18' W 001°15'3715.9
2017-Nov-05 01:43N 50°27' W 000°19'314.8
2017-Nov-05 01:29N 50°28' W 000°15'714.5
2017-Nov-05 01:01N 50°29' W 000°04'714.1
2017-Nov-05 00:30N 50°31' E 000°07'713.5
2017-Nov-05 00:00N 50°32' E 000°17'712.9
2017-Nov-04 23:30N 50°34' E 000°27'612.6
2017-Nov-04 23:00N 50°37' E 000°36'612.3
2017-Nov-04 22:30N 50°40' E 000°44'612.2
2017-Nov-04 22:00N 50°44' E 000°52'612.2
2017-Nov-04 21:30N 50°47' E 000°60'612.8
2017-Nov-04 21:00N 50°51' E 001°08'914.1
2017-Nov-04 20:24N 50°56' E 001°19'615.7
2017-Nov-04 20:00N 51°00' E 001°26'816.7
2017-Nov-04 19:30N 51°06' E 001°36'816.5
2017-Nov-04 19:00N 51°12' E 001°45'815.8
2017-Nov-04 18:30N 51°19' E 001°52'714.4
2017-Nov-04 18:01N 51°24' E 001°58'612.8
2017-Nov-04 17:30N 51°23' E 002°08'713.4
2017-Nov-04 17:00N 51°20' E 002°18'713.3
2017-Nov-04 16:30N 51°23' E 002°28'612.2
2017-Nov-04 15:59N 51°23' E 002°38'5 9.9
2017-Nov-04 15:30N 51°24' E 002°46'510.6
2017-Nov-04 15:00N 51°25' E 002°54'612.3
2017-Nov-04 14:30N 51°25' E 003°04'611.8
2017-Nov-04 14:00N 51°25' E 003°14'612.0
2017-Nov-04 13:30N 51°25' E 003°23'611.6
2017-Nov-04 13:00N 51°26' E 003°32'4 8.4
2017-Nov-04 12:30N 51°26' E 003°39'5 9.6
2017-Nov-04 12:01N 51°23' E 003°44'510.4
2017-Nov-04 11:31N 51°21' E 003°51'510.1
2017-Nov-04 11:00N 51°24' E 003°57'3 6.1
2017-Nov-04 10:30N 51°25' E 004°02'4 8.8
2017-Nov-04 10:00N 51°22' E 004°08'3 6.4
2017-Nov-04 09:30N 51°22' E 004°13'3 5.1
2017-Nov-04 09:00N 51°21' E 004°17'0 0.0
2017-Nov-04 08:30N 51°21' E 004°17'0 0.0
2017-Nov-04 08:00N 51°21' E 004°17'0 0.1
2017-Nov-04 07:30N 51°21' E 004°17'1 2.8
2017-Nov-04 07:00N 51°20' E 004°18'3 5.6
2017-Nov-04 06:31N 51°17' E 004°20'1 1.1
2017-Nov-04 05:53N 51°16' E 004°21'0 0.0
2017-Nov-04 05:26N 51°16' E 004°21'0 0.0
2017-Nov-04 04:56N 51°16' E 004°21'0 0.0
2017-Nov-04 04:29N 51°16' E 004°21'0 0.0
2017-Nov-04 03:59N 51°16' E 004°21'0 0.0
2017-Nov-04 03:26N 51°16' E 004°21'0 0.0
2017-Nov-04 02:59N 51°16' E 004°21'0 0.0
2017-Nov-04 02:29N 51°16' E 004°21'0 0.0
2017-Nov-04 01:59N 51°16' E 004°21'0 0.0
2017-Nov-04 01:26N 51°16' E 004°21'0 0.0
2017-Nov-04 00:59N 51°16' E 004°21'0 0.0
2017-Nov-04 00:11N 51°16' E 004°21'0 0.0
2017-Nov-03 23:59N 51°16' E 004°21'0 0.0
2017-Nov-03 23:29N 51°16' E 004°21'0 0.0
2017-Nov-03 22:59N 51°16' E 004°21'0 0.0
2017-Nov-03 22:29N 51°16' E 004°21'0 0.0
2017-Nov-03 21:56N 51°16' E 004°21'0 0.0
2017-Nov-03 21:29N 51°16' E 004°21'0 0.0
2017-Nov-03 20:50N 51°16' E 004°21'0 0.0
2017-Nov-03 20:29N 51°16' E 004°21'0 0.0
2017-Nov-03 19:59N 51°16' E 004°21'0 0.0
2017-Nov-03 19:29N 51°16' E 004°21'0 0.0
2017-Nov-03 18:50N 51°16' E 004°21'0 0.0
2017-Nov-03 18:26N 51°16' E 004°21'0 0.0
2017-Nov-03 17:56N 51°16' E 004°21'0 0.0
2017-Nov-03 17:29N 51°16' E 004°21'0 0.0
2017-Nov-03 16:59N 51°16' E 004°21'0 0.0
2017-Nov-03 16:26N 51°16' E 004°21'0 0.0
2017-Nov-03 15:59N 51°16' E 004°21'0 0.0
2017-Nov-03 15:26N 51°16' E 004°21'0 0.0
2017-Nov-03 14:56N 51°16' E 004°21'0 0.0
2017-Nov-03 14:29N 51°16' E 004°21'0 0.0
2017-Nov-03 13:59N 51°16' E 004°21'0 0.0
2017-Nov-03 13:26N 51°16' E 004°21'0 0.0
2017-Nov-03 12:53N 51°16' E 004°21'0 0.0
2017-Nov-03 12:26N 51°16' E 004°21'0 0.0
2017-Nov-03 11:56N 51°16' E 004°21'0 0.0
2017-Nov-03 11:29N 51°16' E 004°21'0 0.0
2017-Nov-03 10:59N 51°16' E 004°21'0 0.0
2017-Nov-03 10:26N 51°16' E 004°21'0 0.0
2017-Nov-03 09:59N 51°16' E 004°21'0 0.0
2017-Nov-03 09:29N 51°16' E 004°21'0 0.0
2017-Nov-03 08:59N 51°16' E 004°21'0 0.0
2017-Nov-03 08:29N 51°16' E 004°21'0 0.0
2017-Nov-03 07:59N 51°16' E 004°21'0 0.0
2017-Nov-03 07:29N 51°16' E 004°21'0 0.0
2017-Nov-03 06:59N 51°16' E 004°21'0 0.0
2017-Nov-03 06:29N 51°16' E 004°21'0 0.0
2017-Nov-03 05:59N 51°16' E 004°21'0 0.0
2017-Nov-03 05:29N 51°16' E 004°21'0 0.0
2017-Nov-03 04:59N 51°16' E 004°21'0 0.0
2017-Nov-03 04:29N 51°16' E 004°21'0 0.0
2017-Nov-03 03:59N 51°16' E 004°21'0 0.0
2017-Nov-03 03:29N 51°16' E 004°21'0 0.0
2017-Nov-03 02:59N 51°16' E 004°21'0 0.0
2017-Nov-03 02:29N 51°16' E 004°21'0 0.0
2017-Nov-03 01:56N 51°16' E 004°21'0 0.0
2017-Nov-03 01:29N 51°16' E 004°21'0 0.0
2017-Nov-03 00:56N 51°16' E 004°21'0 0.0
2017-Nov-03 00:29N 51°16' E 004°21'0 0.0
2017-Nov-02 23:56N 51°16' E 004°21'0 0.0
2017-Nov-02 23:29N 51°16' E 004°21'0 0.0
2017-Nov-02 22:59N 51°16' E 004°21'0 0.0
2017-Nov-02 22:29N 51°16' E 004°21'0 0.0
2017-Nov-02 21:59N 51°16' E 004°21'0 0.0
2017-Nov-02 21:29N 51°16' E 004°21'0 0.0
2017-Nov-02 20:56N 51°16' E 004°21'0 0.0
2017-Nov-02 20:28N 51°16' E 004°21'0 0.0
2017-Nov-02 19:59N 51°16' E 004°21'0 0.0
2017-Nov-02 19:29N 51°16' E 004°21'0 0.0
2017-Nov-02 18:59N 51°16' E 004°21'0 0.0
2017-Nov-02 18:29N 51°16' E 004°21'0 0.0
2017-Nov-02 17:59N 51°16' E 004°21'0 0.0
2017-Nov-02 17:29N 51°16' E 004°21'0 0.0
2017-Nov-02 16:58N 51°16' E 004°21'0 0.0
2017-Nov-02 16:29N 51°16' E 004°21'0 0.0
2017-Nov-02 15:58N 51°16' E 004°21'0 0.0
2017-Nov-02 15:28N 51°16' E 004°21'0 0.0
2017-Nov-02 14:59N 51°16' E 004°21'0 0.0
2017-Nov-02 14:28N 51°16' E 004°21'0 0.0
2017-Nov-02 13:58N 51°16' E 004°21'0 0.0
2017-Nov-02 13:28N 51°16' E 004°21'0 0.0
2017-Nov-02 12:59N 51°16' E 004°21'0 0.0
2017-Nov-02 12:29N 51°16' E 004°21'0 0.0
2017-Nov-02 11:58N 51°16' E 004°21'0 0.0
2017-Nov-02 11:28N 51°16' E 004°21'0 0.0
2017-Nov-02 10:59N 51°16' E 004°21'0 0.0
2017-Nov-02 10:28N 51°16' E 004°21'0 0.0
2017-Nov-02 09:59N 51°16' E 004°21'0 0.0
2017-Nov-02 09:28N 51°16' E 004°21'0 0.0
2017-Nov-02 08:58N 51°16' E 004°21'0 0.0
2017-Nov-02 08:22N 51°16' E 004°21'0 0.0
2017-Nov-02 07:59N 51°16' E 004°21'0 0.0
2017-Nov-02 07:28N 51°16' E 004°21'0 0.0
2017-Nov-02 06:55N 51°16' E 004°21'0 0.0
2017-Nov-02 06:28N 51°16' E 004°21'0 0.0
2017-Nov-02 05:56N 51°16' E 004°21'0 0.0
2017-Nov-02 05:29N 51°16' E 004°21'0 0.0
2017-Nov-02 04:58N 51°16' E 004°21'0 0.0
2017-Nov-02 04:22N 51°16' E 004°21'0 0.0
2017-Nov-02 03:58N 51°16' E 004°21'0 0.0
2017-Nov-02 03:28N 51°16' E 004°21'0 0.0
2017-Nov-02 02:58N 51°16' E 004°21'0 0.0
2017-Nov-02 02:25N 51°16' E 004°21'0 0.0
2017-Nov-02 01:58N 51°16' E 004°21'0 0.0
2017-Nov-02 01:28N 51°16' E 004°21'0 0.0
2017-Nov-02 00:58N 51°16' E 004°21'0 0.0
2017-Nov-02 00:28N 51°16' E 004°21'0 0.0
2017-Nov-01 23:58N 51°16' E 004°21'0 0.0
2017-Nov-01 23:28N 51°16' E 004°21'0 0.0
2017-Nov-01 22:58N 51°16' E 004°21'0 0.0
2017-Nov-01 22:28N 51°16' E 004°21'0 0.0
2017-Nov-01 21:58N 51°16' E 004°21'0 0.0
2017-Nov-01 21:28N 51°16' E 004°21'0 0.0
2017-Nov-01 20:58N 51°16' E 004°21'0 0.0
2017-Nov-01 20:28N 51°16' E 004°21'0 0.0
2017-Nov-01 19:58N 51°16' E 004°21'0 0.0
2017-Nov-01 19:25N 51°16' E 004°21'0 0.0
2017-Nov-01 18:58N 51°16' E 004°21'0 0.0
2017-Nov-01 18:28N 51°16' E 004°21'0 0.0
2017-Nov-01 01:58N 51°16' E 004°21'0 0.0
2017-Nov-01 01:28N 51°16' E 004°21'0 0.0
2017-Nov-01 00:58N 51°16' E 004°21'0 0.0
2017-Nov-01 00:28N 51°16' E 004°21'0 0.0
2017-Oct-31 23:58N 51°16' E 004°21'0 0.0
2017-Oct-31 23:28N 51°16' E 004°21'0 0.0
2017-Oct-31 22:58N 51°16' E 004°21'0 0.0
2017-Oct-31 22:25N 51°16' E 004°21'0 0.2
2017-Oct-31 22:00N 51°16' E 004°21'2 4.4
2017-Oct-31 21:30N 51°19' E 004°19'3 5.2
2017-Oct-31 21:00N 51°21' E 004°17'0 0.3
2017-Oct-31 20:30N 51°21' E 004°17'0 0.0
2017-Oct-31 20:00N 51°21' E 004°17'0 0.2
2017-Oct-31 19:31N 51°21' E 004°17'2 4.0
2017-Oct-31 19:00N 51°21' E 004°14'4 7.5
2017-Oct-31 18:31N 51°22' E 004°08'611.1
2017-Oct-31 18:00N 51°26' E 004°01'611.1
2017-Oct-31 17:30N 51°22' E 003°55'611.7
2017-Oct-31 17:01N 51°22' E 003°45'611.1
2017-Oct-31 16:30N 51°26' E 003°40'4 7.8
2017-Oct-31 16:01N 51°25' E 003°34'  

Dump ship's entire track history